ムルマンスク の空港の天気 - METARとTAF

ムルマンスク空港 ( ULMM / MMK ) - ロシア ムルマンスク
飛行場実況気象(Metar)
観測時間02/28 03:30 MSK (02/28 00:30 UTC)
風向・風速西南西 4m/s
視程10km以上
天気現象
全天の4割程度の雲 雲底高度 210m
全天の8割程度の雲 雲底高度 610m
気温-4℃
湿度86%
気圧997hPa
METARULMM 280030Z 25004MPS 9999 SCT007 BKN020CB M04/M06 Q0997 R31/490235 NOSIG RMK OBST OBSC QFE741
過去の天気等 Google飛行場航空写真 Wunderground天気予報

過去48時間のMETAR

飛行場予報(TAF)
発表時間: 2/28 01:50 MSK (2/27 22:50 UTC)
予報対象時間: 28日3時 MSK ~ 1日3時 MSK
風向・風速西 3m/s 瞬間風速 8m/s
視程5,000m
天気現象弱いしゅう雪 もや
全天の8割程度の雲 雲底高度 210m
全天の8割程度の積乱雲 雲底高度 370m
28日3時 MSK ~ 28日10時 MSK に一時的に
風向・風速南西 4m/s
視程300m
天気現象弱いしゅう雪 氷霧
全天の8割程度の雲 雲底高度 60m
全天の8割程度の積乱雲 雲底高度 370m
28日10時 MSK ~ 1日3時 MSK に一時的に
風向・風速南西 4m/s
視程2,100m
天気現象弱いしゅう雪 もや
全天の8割程度の雲 雲底高度 150m
全天の8割程度の積乱雲 雲底高度 370m
TAF ULMM 272250Z 2800/2824 26003G08MPS 5000 -SHSN BR BKN007 BKN012CB
TEMPO 2800/2807 23004MPS 0300 -SHSN FZFG BKN002 BKN012CB
TEMPO 2807/2824 23004MPS 2100 -SHSN BR BKN005 BKN012CB